Time;durP1;ratioP1;P1;durP2;ratioP2;P2;SDS_P1;SDS_P2;PMS_P1;PMS_P2;Temp;Humidity;BMP_temperature;BMP_pressure;BME280_temperature;BME280_humidity;BME280_pressure;Samples;Min_cycle;Max_cycle;Signal;HPM_P1;HPM_P2
2023/04/03 00:02:18;;;;;;;4.83;1.27;;;1.20;99.90;;;;;;5055412;28;20189;-85
2023/04/03 00:04:44;;;;;;;3.50;1.03;;;1.10;99.90;;;;;;5059378;28;20508;-86
2023/04/03 00:07:10;;;;;;;4.33;1.03;;;1.20;99.90;;;;;;5077444;28;20181;-87
2023/04/03 00:09:35;;;;;;;2.07;1.10;;;1.20;99.90;;;;;;5059439;28;20187;-87
2023/04/03 00:12:01;;;;;;;6.17;1.30;;;1.20;99.90;;;;;;5059206;28;20181;-86
2023/04/03 00:14:27;;;;;;;2.17;0.80;;;1.10;99.90;;;;;;5059199;28;20205;-86
2023/04/03 00:16:53;;;;;;;4.63;1.10;;;1.00;99.90;;;;;;5059238;28;20298;-85
2023/04/03 00:19:19;;;;;;;5.67;1.20;;;1.00;99.90;;;;;;5077069;28;20179;-87
2023/04/03 00:21:46;;;;;;;5.60;1.10;;;0.90;99.90;;;;;;5059019;28;20641;-86
2023/04/03 00:24:11;;;;;;;8.60;1.27;;;1.00;99.90;;;;;;5059146;28;20173;-86
2023/04/03 00:26:37;;;;;;;2.43;0.90;;;0.80;99.90;;;;;;5485972;22;21332;-85
2023/04/03 00:29:03;;;;;;;1.83;1.17;;;0.80;99.90;;;;;;5037160;28;20210;-87
2023/04/03 00:31:29;;;;;;;3.90;1.20;;;0.80;99.90;;;;;;5018568;28;20176;-86
2023/04/03 00:33:54;;;;;;;4.23;1.30;;;0.80;99.90;;;;;;5036569;28;20180;-87
2023/04/03 00:36:20;;;;;;;8.53;1.37;;;0.70;99.90;;;;;;5018994;28;20190;-86
2023/04/03 00:38:46;;;;;;;3.73;1.07;;;0.70;99.90;;;;;;5035387;28;20182;-85
2023/04/03 00:41:11;;;;;;;3.83;1.43;;;0.60;99.90;;;;;;5035274;28;20635;-85
2023/04/03 00:43:37;;;;;;;2.43;1.10;;;0.60;99.90;;;;;;5036247;28;20206;-85
2023/04/03 00:46:03;;;;;;;3.17;1.10;;;0.50;99.90;;;;;;5036499;28;20235;-86
2023/04/03 00:48:42;;;;;;;3.93;1.47;;;0.60;99.90;;;;;;5035213;28;20186;-85
2023/04/03 00:51:13;;;;;;;3.67;1.00;;;0.60;99.90;;;;;;5018335;28;20176;-85
2023/04/03 00:53:55;;;;;;;5.80;1.53;;;0.60;99.90;;;;;;5018499;28;20257;-84
2023/04/03 00:56:24;;;;;;;3.90;1.03;;;0.60;99.90;;;;;;5036223;28;20175;-85
2023/04/03 00:58:56;;;;;;;4.20;1.37;;;0.70;99.90;;;;;;5052058;28;20308;-85
2023/04/03 01:01:24;;;;;;;2.60;1.20;;;0.70;99.90;;;;;;5055641;28;20667;-84
2023/04/03 01:03:50;;;;;;;5.97;1.47;;;0.70;99.90;;;;;;5055868;28;20177;-85
2023/04/03 01:06:20;;;;;;;6.00;1.40;;;0.70;99.90;;;;;;5055923;28;20169;-85
2023/04/03 01:08:49;;;;;;;3.00;1.10;;;0.70;99.90;;;;;;5055835;28;20178;-84
2023/04/03 01:11:14;;;;;;;4.53;1.87;;;0.80;99.90;;;;;;5037869;28;20178;-85
2023/04/03 01:13:40;;;;;;;3.20;1.00;;;0.80;99.90;;;;;;5055273;28;20180;-86
2023/04/03 01:16:06;;;;;;;2.63;1.03;;;0.80;99.90;;;;;;5038223;28;20213;-86
2023/04/03 01:18:34;;;;;;;6.70;1.57;;;0.70;99.90;;;;;;5055668;28;20691;-85
2023/04/03 01:21:37;;;;;;;4.37;1.57;;;0.70;99.90;;;;;;5055682;28;20195;-85
2023/04/03 01:24:22;;;;;;;6.07;1.10;;;0.70;99.90;;;;;;5037628;28;20276;-85
2023/04/03 01:26:49;;;;;;;6.33;1.07;;;0.70;99.90;;;;;;5037354;28;20275;-86
2023/04/03 01:29:15;;;;;;;2.53;1.03;;;0.70;99.90;;;;;;5035513;28;20179;-86
2023/04/03 01:31:52;;;;;;;3.47;0.83;;;0.60;99.90;;;;;;5017850;28;20523;-85
2023/04/03 01:34:18;;;;;;;3.70;0.97;;;0.60;99.90;;;;;;5035641;28;20210;-85
2023/04/03 01:36:44;;;;;;;4.67;1.20;;;0.60;99.90;;;;;;5035456;28;20263;-85
2023/04/03 01:39:11;;;;;;;5.13;1.30;;;0.60;99.90;;;;;;5034914;28;20217;-85
2023/04/03 01:41:37;;;;;;;4.03;1.40;;;0.60;99.90;;;;;;5035336;28;20185;-86
2023/04/03 01:44:03;;;;;;;7.93;1.13;;;0.60;99.90;;;;;;5035055;28;20258;-86
2023/04/03 01:46:29;;;;;;;2.93;0.97;;;0.60;99.90;;;;;;5035298;28;20270;-86
2023/04/03 01:48:58;;;;;;;4.53;1.27;;;0.60;99.90;;;;;;5034398;28;20556;-84
2023/04/03 01:51:23;;;;;;;4.23;1.23;;;0.60;99.90;;;;;;5041663;28;20209;-86
2023/04/03 01:53:49;;;;;;;3.33;0.80;;;0.60;99.90;;;;;;5037174;28;20568;-84
2023/04/03 01:56:15;;;;;;;2.73;0.90;;;0.60;99.90;;;;;;5055008;28;20204;-85
2023/04/03 01:58:41;;;;;;;5.23;1.20;;;0.60;99.90;;;;;;5054920;28;20176;-86
2023/04/03 02:01:06;;;;;;;4.57;1.07;;;0.50;99.90;;;;;;5036913;28;20180;-86
2023/04/03 02:03:32;;;;;;;3.13;1.03;;;0.60;99.90;;;;;;5054958;28;20736;-86
2023/04/03 02:05:58;;;;;;;3.53;1.50;;;0.60;99.90;;;;;;5054654;28;20173;-85
2023/04/03 02:08:24;;;;;;;4.83;1.20;;;0.50;99.90;;;;;;5054721;28;20166;-85
2023/04/03 02:10:50;;;;;;;2.93;1.03;;;0.50;99.90;;;;;;5054375;28;20171;-84
2023/04/03 02:13:17;;;;;;;3.50;0.90;;;0.50;99.90;;;;;;5036719;28;20177;-86
2023/04/03 02:15:43;;;;;;;1.90;1.17;;;0.50;99.90;;;;;;5054797;28;20210;-86
2023/04/03 02:18:09;;;;;;;9.07;1.60;;;0.50;99.90;;;;;;5054830;28;20494;-86
2023/04/03 02:20:35;;;;;;;4.00;1.17;;;0.50;99.90;;;;;;5054396;28;20489;-85
2023/04/03 02:23:02;;;;;;;6.57;1.30;;;0.50;99.90;;;;;;5054092;28;20162;-86
2023/04/03 02:25:28;;;;;;;4.10;1.40;;;0.40;99.90;;;;;;5053760;28;20261;-85
2023/04/03 02:27:53;;;;;;;3.50;0.87;;;0.40;99.90;;;;;;5054378;28;20611;-85
2023/04/03 02:30:19;;;;;;;6.93;1.40;;;0.40;99.90;;;;;;5054282;28;20177;-85
2023/04/03 02:32:45;;;;;;;3.87;1.50;;;0.40;99.90;;;;;;5054692;28;20155;-85
2023/04/03 02:35:11;;;;;;;7.70;1.30;;;0.40;99.90;;;;;;5054306;28;20624;-86
2023/04/03 02:37:38;;;;;;;5.70;1.37;;;0.30;99.90;;;;;;5053968;28;20204;-86
2023/04/03 02:40:05;;;;;;;5.20;1.63;;;0.40;99.90;;;;;;5054259;28;20178;-86
2023/04/03 02:42:31;;;;;;;4.27;1.17;;;0.30;99.90;;;;;;5054187;28;20180;-86
2023/04/03 02:44:56;;;;;;;1.50;0.93;;;0.30;99.90;;;;;;5036417;28;20575;-86
2023/04/03 02:47:22;;;;;;;4.37;1.10;;;0.30;99.90;;;;;;5036498;28;20205;-86
2023/04/03 02:49:49;;;;;;;4.33;1.07;;;0.30;99.90;;;;;;5036475;28;20183;-87
2023/04/03 02:52:15;;;;;;;2.83;1.20;;;0.30;99.90;;;;;;5053785;28;20210;-86
2023/04/03 02:54:41;;;;;;;5.87;1.37;;;0.30;99.90;;;;;;5054236;28;20204;-86
2023/04/03 02:57:10;;;;;;;5.23;1.67;;;0.30;99.90;;;;;;5053458;28;20213;-84
2023/04/03 02:59:40;;;;;;;4.83;1.03;;;0.30;99.90;;;;;;5053913;28;20623;-87
2023/04/03 03:02:07;;;;;;;1.93;0.87;;;0.40;99.90;;;;;;5036454;28;20177;-87
2023/04/03 03:04:33;;;;;;;5.90;1.47;;;0.30;99.90;;;;;;5054192;28;20178;-87
2023/04/03 03:06:58;;;;;;;9.50;1.20;;;0.30;99.90;;;;;;5054293;28;20659;-86
2023/04/03 03:09:25;;;;;;;3.80;1.00;;;0.30;99.90;;;;;;5036254;28;20181;-87
2023/04/03 03:11:51;;;;;;;2.53;0.90;;;0.30;99.90;;;;;;5036209;28;20174;-86
2023/04/03 03:14:16;;;;;;;5.07;1.20;;;0.20;99.90;;;;;;5053618;28;20257;-86
2023/04/03 03:16:42;;;;;;;2.37;0.90;;;0.20;99.90;;;;;;5036302;28;20193;-87
2023/04/03 03:19:08;;;;;;;3.47;1.00;;;0.20;99.90;;;;;;5053914;28;20219;-87
2023/04/03 03:21:34;;;;;;;6.53;1.00;;;0.30;99.90;;;;;;5053856;28;20297;-86
2023/04/03 03:23:59;;;;;;;5.40;1.33;;;0.20;99.90;;;;;;5036143;28;20261;-86
2023/04/03 03:26:26;;;;;;;3.93;1.50;;;0.20;99.90;;;;;;5035168;28;20201;-86
2023/04/03 03:28:51;;;;;;;3.97;1.20;;;0.20;99.90;;;;;;5035385;28;20233;-87
2023/04/03 03:31:17;;;;;;;5.40;1.50;;;0.20;99.90;;;;;;5035547;28;20170;-87
2023/04/03 03:33:43;;;;;;;3.67;1.00;;;0.20;99.90;;;;;;5053361;28;20224;-87
2023/04/03 03:36:09;;;;;;;4.10;1.20;;;0.20;99.90;;;;;;5035574;28;20283;-87
2023/04/03 03:38:35;;;;;;;4.27;1.10;;;0.10;99.90;;;;;;5057139;28;20304;-86
2023/04/03 03:41:01;;;;;;;7.60;1.40;;;0.20;99.90;;;;;;5039365;28;20196;-87
2023/04/03 03:43:27;;;;;;;7.93;1.43;;;0.20;99.90;;;;;;5057094;28;20556;-87
2023/04/03 03:45:53;;;;;;;3.80;1.13;;;0.10;99.90;;;;;;5057638;28;20249;-85
2023/04/03 03:48:20;;;;;;;7.60;1.53;;;0.10;99.90;;;;;;5039549;28;20647;-86
2023/04/03 03:50:46;;;;;;;1.97;0.90;;;0.10;99.90;;;;;;5038885;28;20178;-86
2023/04/03 03:53:12;;;;;;;4.90;1.30;;;0.20;99.90;;;;;;5057420;28;20249;-86
2023/04/03 03:55:38;;;;;;;7.57;1.57;;;0.20;99.90;;;;;;5056101;28;20316;-85
2023/04/03 03:58:03;;;;;;;4.37;1.00;;;0.10;99.90;;;;;;5056889;28;20635;-86
2023/04/03 04:00:30;;;;;;;5.47;1.07;;;0.00;99.90;;;;;;5057404;28;20614;-86
2023/04/03 04:02:56;;;;;;;4.50;1.37;;;0.00;99.90;;;;;;5057308;28;20477;-86
2023/04/03 04:05:22;;;;;;;5.90;1.37;;;0.00;99.90;;;;;;5057381;28;20185;-87
2023/04/03 04:07:48;;;;;;;5.40;1.20;;;0.00;99.90;;;;;;5057340;28;20506;-86
2023/04/03 04:10:14;;;;;;;7.63;1.17;;;0.00;99.90;;;;;;5057055;28;20176;-86
2023/04/03 04:12:39;;;;;;;5.47;1.23;;;0.00;99.90;;;;;;5057224;28;20166;-87
2023/04/03 04:15:06;;;;;;;5.57;1.03;;;0.00;99.90;;;;;;5056818;28;20208;-87
2023/04/03 04:17:31;;;;;;;4.73;1.27;;;-0.10;99.90;;;;;;5057103;28;20263;-87
2023/04/03 04:19:57;;;;;;;4.13;1.13;;;0.00;99.90;;;;;;5039000;28;20207;-86
2023/04/03 04:22:23;;;;;;;6.43;1.30;;;-0.10;99.90;;;;;;5056585;28;20193;-85
2023/04/03 04:24:48;;;;;;;6.60;1.03;;;-0.10;99.90;;;;;;5056878;28;20189;-87
2023/04/03 04:27:15;;;;;;;7.87;1.30;;;-0.10;99.90;;;;;;5056651;28;20316;-85
2023/04/03 04:29:41;;;;;;;4.53;1.47;;;-0.30;99.90;;;;;;5056312;28;20235;-85
2023/04/03 04:32:07;;;;;;;2.47;1.20;;;-0.20;99.90;;;;;;5056605;28;20178;-86
2023/04/03 04:34:33;;;;;;;6.57;1.13;;;-0.40;99.90;;;;;;5056321;28;20201;-85
2023/04/03 04:36:58;;;;;;;4.87;1.30;;;-0.30;99.90;;;;;;5038681;28;20236;-86
2023/04/03 04:39:24;;;;;;;6.87;1.60;;;-0.40;99.90;;;;;;5044337;28;20227;-86
2023/04/03 04:41:50;;;;;;;7.47;1.60;;;-0.50;99.90;;;;;;5042205;28;20251;-85
2023/04/03 04:44:15;;;;;;;3.73;1.30;;;-0.50;99.90;;;;;;5056270;28;20162;-86
2023/04/03 04:46:41;;;;;;;4.43;1.50;;;-0.40;99.90;;;;;;5038886;28;20235;-85
2023/04/03 04:49:07;;;;;;;6.60;1.50;;;-0.40;99.90;;;;;;5055606;28;20543;-86
2023/04/03 04:51:32;;;;;;;5.30;1.20;;;-0.50;99.90;;;;;;5030638;28;20194;-85
2023/04/03 04:53:58;;;;;;;2.80;1.07;;;-0.50;99.90;;;;;;5036377;28;20205;-85
2023/04/03 04:56:25;;;;;;;6.93;1.83;;;-0.40;99.90;;;;;;5060418;28;20210;-84
2023/04/03 04:58:50;;;;;;;6.53;1.77;;;-0.50;99.90;;;;;;5029910;28;20569;-85
2023/04/03 05:01:16;;;;;;;5.53;1.33;;;-0.40;99.90;;;;;;5055760;28;20265;-85
2023/04/03 05:03:42;;;;;;;4.67;1.93;;;-0.50;99.90;;;;;;5055590;28;20558;-86
2023/04/03 05:06:07;;;;;;;4.03;1.30;;;-0.50;99.90;;;;;;5053590;28;20213;-85
2023/04/03 05:08:33;;;;;;;5.23;1.70;;;-0.60;99.90;;;;;;5036438;28;20217;-84
2023/04/03 05:11:00;;;;;;;4.60;1.27;;;-0.50;99.90;;;;;;5037311;28;20616;-84
2023/04/03 05:13:26;;;;;;;4.33;1.50;;;-0.50;99.90;;;;;;5055697;28;20177;-85
2023/04/03 05:15:51;;;;;;;4.07;1.20;;;-0.40;99.90;;;;;;5055754;28;20209;-85
2023/04/03 05:18:17;;;;;;;4.97;1.37;;;-0.40;99.90;;;;;;5037801;28;20216;-85
2023/04/03 05:20:43;;;;;;;3.40;1.27;;;-0.30;99.90;;;;;;5055134;28;20193;-84
2023/04/03 05:23:10;;;;;;;3.67;1.40;;;-0.30;99.90;;;;;;5037323;28;20699;-85
2023/04/03 05:25:38;;;;;;;5.00;1.60;;;-0.30;99.90;;;;;;5054543;28;20613;-85
2023/04/03 05:28:04;;;;;;;6.47;1.60;;;-0.20;99.90;;;;;;5055169;28;20225;-84
2023/04/03 05:30:29;;;;;;;9.57;1.90;;;-0.20;99.90;;;;;;5054858;28;20523;-84
2023/04/03 05:32:55;;;;;;;6.63;1.83;;;-0.10;99.90;;;;;;5037337;28;20170;-84
2023/04/03 05:35:21;;;;;;;7.90;1.60;;;0.10;99.90;;;;;;5055354;28;20217;-85
2023/04/03 05:37:46;;;;;;;4.80;1.60;;;0.20;99.90;;;;;;5055394;28;20563;-85
2023/04/03 05:40:12;;;;;;;6.27;1.50;;;0.30;99.90;;;;;;5055212;28;20178;-85
2023/04/03 05:42:38;;;;;;;6.77;1.53;;;0.40;99.90;;;;;;5037116;28;20209;-85
2023/04/03 05:45:04;;;;;;;10.73;1.60;;;0.40;99.90;;;;;;5037426;28;20521;-85
2023/04/03 05:47:30;;;;;;;5.30;1.30;;;0.60;99.90;;;;;;5037306;28;20652;-85
2023/04/03 05:49:56;;;;;;;8.37;1.87;;;0.60;99.90;;;;;;5037431;28;20262;-85
2023/04/03 05:52:30;;;;;;;8.03;1.63;;;0.60;99.90;;;;;;5054917;28;20732;-82
2023/04/03 05:54:56;;;;;;;4.50;1.40;;;0.70;99.90;;;;;;5037266;28;20228;-85
2023/04/03 05:57:22;;;;;;;4.37;1.37;;;0.70;99.90;;;;;;5054597;28;20201;-85
2023/04/03 05:59:48;;;;;;;4.70;1.77;;;0.80;99.90;;;;;;5036509;28;20185;-84
2023/04/03 06:02:18;;;;;;;5.77;1.40;;;0.90;99.90;;;;;;5054395;28;20180;-85
2023/04/03 06:04:44;;;;;;;4.97;1.47;;;0.90;99.90;;;;;;5054910;28;20184;-85
2023/04/03 06:07:13;;;;;;;6.30;1.70;;;1.00;99.90;;;;;;5054011;28;20173;-84
2023/04/03 06:09:39;;;;;;;4.07;1.40;;;1.10;99.90;;;;;;5054633;28;20185;-84
2023/04/03 06:12:04;;;;;;;3.40;1.23;;;1.10;99.90;;;;;;5054216;28;20166;-83
2023/04/03 06:14:30;;;;;;;6.10;1.47;;;1.30;99.90;;;;;;5036865;28;20210;-85
2023/04/03 06:16:56;;;;;;;5.60;1.50;;;1.30;99.90;;;;;;5054560;28;20173;-86
2023/04/03 06:19:22;;;;;;;3.07;1.27;;;1.30;99.90;;;;;;5036838;28;20178;-86
2023/04/03 06:21:50;;;;;;;3.43;1.43;;;1.30;99.90;;;;;;5036729;28;20225;-86
2023/04/03 06:24:17;;;;;;;7.50;1.23;;;1.40;99.90;;;;;;5054879;28;20158;-86
2023/04/03 06:26:43;;;;;;;5.20;1.40;;;1.50;99.90;;;;;;5053956;28;20339;-84
2023/04/03 06:29:09;;;;;;;6.93;1.37;;;1.50;99.90;;;;;;5054277;28;20166;-85
2023/04/03 06:31:36;;;;;;;3.70;1.00;;;1.50;99.90;;;;;;5052574;28;20292;-86
2023/04/03 06:34:03;;;;;;;5.00;1.30;;;1.60;99.90;;;;;;5052349;28;20218;-86
2023/04/03 06:36:29;;;;;;;3.77;1.50;;;1.80;99.90;;;;;;5036104;28;20217;-86
2023/04/03 06:38:55;;;;;;;4.80;1.43;;;1.80;99.90;;;;;;5054011;28;20168;-87
2023/04/03 06:41:21;;;;;;;2.97;1.43;;;1.90;99.90;;;;;;5053570;28;20181;-86
2023/04/03 06:43:47;;;;;;;3.97;1.30;;;2.00;99.90;;;;;;5036144;28;20188;-87
2023/04/03 06:46:22;;;;;;;2.60;1.23;;;2.10;99.90;;;;;;5053926;28;20186;-86
2023/04/03 06:48:49;;;;;;;5.43;1.57;;;2.00;99.90;;;;;;5051743;28;20181;-85
2023/04/03 06:51:21;;;;;;;2.93;1.37;;;2.10;99.90;;;;;;5034132;28;20190;-85
2023/04/03 06:53:48;;;;;;;4.77;1.33;;;2.10;99.90;;;;;;5053867;28;20173;-85
2023/04/03 06:56:14;;;;;;;6.60;1.20;;;2.10;99.90;;;;;;5053782;28;20217;-86
2023/04/03 06:58:41;;;;;;;4.43;1.10;;;2.20;99.90;;;;;;5053502;28;20174;-85
2023/04/03 07:01:09;;;;;;;3.03;1.40;;;2.30;99.90;;;;;;5035931;28;20178;-87
2023/04/03 07:03:35;;;;;;;4.77;1.20;;;2.40;99.90;;;;;;5035744;28;20186;-84
2023/04/03 07:06:01;;;;;;;5.20;1.30;;;2.50;99.90;;;;;;5053535;28;20177;-87
2023/04/03 07:08:27;;;;;;;3.67;1.10;;;2.70;99.90;;;;;;5036126;28;20181;-86
2023/04/03 07:10:52;;;;;;;4.77;1.20;;;2.70;99.90;;;;;;5035980;28;20177;-87
2023/04/03 07:13:18;;;;;;;4.67;1.27;;;2.70;99.90;;;;;;5035503;28;20182;-85
2023/04/03 07:15:44;;;;;;;3.00;1.30;;;2.80;99.90;;;;;;5050334;28;20233;-85
2023/04/03 07:18:10;;;;;;;5.07;1.30;;;2.80;99.90;;;;;;5023197;28;20214;-85
2023/04/03 07:20:36;;;;;;;5.03;1.10;;;2.90;99.90;;;;;;5016243;28;20206;-86
2023/04/03 07:23:02;;;;;;;4.93;1.10;;;3.00;99.90;;;;;;5033025;28;20218;-86
2023/04/03 07:25:28;;;;;;;7.27;1.57;;;3.10;99.90;;;;;;5017060;28;20277;-84
2023/04/03 07:27:54;;;;;;;4.57;1.10;;;3.10;99.90;;;;;;5015543;28;20322;-86
2023/04/03 07:30:20;;;;;;;4.20;0.90;;;3.20;99.90;;;;;;5030749;28;20564;-85
2023/04/03 07:32:47;;;;;;;3.30;1.07;;;3.30;99.90;;;;;;5036156;28;20181;-86
2023/04/03 07:35:13;;;;;;;4.20;1.13;;;3.30;99.90;;;;;;5035270;28;20217;-85
2023/04/03 07:37:39;;;;;;;5.70;1.33;;;3.20;99.90;;;;;;5035666;28;20181;-86
2023/04/03 07:40:06;;;;;;;5.13;1.43;;;3.20;99.90;;;;;;5053211;28;20192;-85
2023/04/03 07:42:33;;;;;;;2.20;1.00;;;3.30;99.90;;;;;;5035205;28;20196;-86
2023/04/03 07:45:00;;;;;;;3.77;1.10;;;3.50;99.90;;;;;;5035771;28;20178;-86
2023/04/03 07:47:26;;;;;;;5.30;1.10;;;3.60;99.90;;;;;;5035661;28;20209;-85
2023/04/03 07:49:51;;;;;;;3.40;0.70;;;3.80;99.90;;;;;;5035247;28;20255;-85
2023/04/03 07:52:17;;;;;;;6.63;1.37;;;3.70;99.90;;;;;;5035005;28;20624;-84
2023/04/03 07:54:43;;;;;;;3.87;0.97;;;3.80;99.90;;;;;;5035362;28;20209;-85
2023/04/03 07:57:08;;;;;;;6.67;1.30;;;3.90;99.90;;;;;;5053429;28;20678;-85
2023/04/03 07:59:34;;;;;;;3.63;1.30;;;3.90;99.90;;;;;;5035417;28;20178;-84
2023/04/03 08:02:00;;;;;;;6.07;1.27;;;4.00;99.90;;;;;;5053217;28;20223;-86
2023/04/03 08:04:26;;;;;;;3.70;0.70;;;4.20;99.90;;;;;;5035537;28;20220;-86
2023/04/03 08:06:52;;;;;;;3.70;1.23;;;4.10;99.90;;;;;;5035181;28;20612;-85
2023/04/03 08:09:19;;;;;;;3.47;1.00;;;4.30;99.90;;;;;;5052719;28;20182;-83
2023/04/03 08:11:45;;;;;;;5.63;1.23;;;4.40;99.90;;;;;;5032981;28;20243;-86
2023/04/03 08:14:16;;;;;;;3.73;1.07;;;4.50;99.90;;;;;;5033287;28;20174;-85
2023/04/03 08:16:43;;;;;;;2.83;0.87;;;4.60;99.90;;;;;;5015457;28;20191;-85
2023/04/03 08:19:10;;;;;;;1.93;1.00;;;4.70;99.90;;;;;;5015507;28;20213;-83
2023/04/03 08:21:36;;;;;;;3.90;1.30;;;4.70;99.90;;;;;;5038307;28;20217;-85
2023/04/03 08:24:03;;;;;;;3.93;1.10;;;4.60;99.90;;;;;;5054206;28;20650;-85
2023/04/03 08:26:29;;;;;;;2.27;0.90;;;4.60;99.90;;;;;;5039026;28;20185;-87
2023/04/03 08:28:55;;;;;;;2.13;0.97;;;4.80;99.90;;;;;;5016245;28;20226;-84
2023/04/03 08:31:21;;;;;;;1.47;0.80;;;4.80;99.90;;;;;;5015675;28;20183;-85
2023/04/03 08:33:47;;;;;;;3.23;0.80;;;4.90;99.90;;;;;;5016899;28;20261;-85
2023/04/03 08:36:22;;;;;;;3.77;0.90;;;5.00;99.90;;;;;;5015204;28;20215;-85
2023/04/03 08:38:49;;;;;;;2.87;0.70;;;5.20;99.90;;;;;;5015700;28;20534;-84
2023/04/03 08:41:30;;;;;;;3.80;0.70;;;5.10;99.90;;;;;;5016633;28;20265;-85
2023/04/03 08:44:13;;;;;;;1.90;0.80;;;5.20;99.90;;;;;;5016781;28;20586;-85
2023/04/03 08:47:01;;;;;;;2.23;0.70;;;5.20;99.90;;;;;;5016428;28;20191;-85
2023/04/03 08:49:32;;;;;;;2.80;0.93;;;5.30;99.90;;;;;;5016408;28;20179;-85
2023/04/03 08:52:03;;;;;;;1.80;0.80;;;5.30;99.90;;;;;;5015102;28;20278;-85
2023/04/03 08:54:34;;;;;;;2.43;1.10;;;5.30;99.90;;;;;;5016224;28;20168;-83
2023/04/03 08:57:03;;;;;;;2.13;0.63;;;5.50;99.90;;;;;;5014948;28;20533;-86
2023/04/03 08:59:33;;;;;;;4.10;1.03;;;5.50;99.90;;;;;;5016071;28;20633;-85
2023/04/03 09:02:05;;;;;;;4.03;0.97;;;5.60;99.90;;;;;;5015248;28;20171;-84
2023/04/03 09:04:32;;;;;;;2.00;0.80;;;5.70;99.90;;;;;;5015044;28;20173;-84
2023/04/03 09:07:07;;;;;;;2.50;0.83;;;5.80;99.90;;;;;;5014794;28;20610;-84
2023/04/03 09:09:40;;;;;;;2.40;0.80;;;5.90;99.90;;;;;;5014779;28;20166;-86
2023/04/03 09:12:26;;;;;;;3.57;0.70;;;5.70;99.90;;;;;;5015952;28;20167;-86
2023/04/03 09:15:11;;;;;;;4.70;1.33;;;5.60;99.90;;;;;;5014963;28;20211;-84
2023/04/03 09:18:02;;;;;;;3.50;0.50;;;5.50;99.90;;;;;;5014833;28;20179;-84
2023/04/03 09:20:56;;;;;;;1.83;0.73;;;5.40;99.90;;;;;;5015795;28;20199;-84
2023/04/03 09:23:30;;;;;;;3.43;1.20;;;5.60;99.90;;;;;;5015829;28;20171;-84
2023/04/03 09:26:07;;;;;;;2.40;1.43;;;5.70;99.90;;;;;;5014606;28;20258;-86
2023/04/03 09:28:38;;;;;;;3.57;0.97;;;5.60;99.90;;;;;;5014258;28;20238;-84
2023/04/03 09:31:22;;;;;;;2.57;0.93;;;5.90;99.90;;;;;;5013846;28;20172;-84
2023/04/03 09:33:56;;;;;;;2.53;1.03;;;6.20;99.90;;;;;;5015837;28;20168;-87
2023/04/03 09:36:45;;;;;;;3.43;0.90;;;6.30;99.90;;;;;;5003190;28;20609;-83
2023/04/03 09:39:23;;;;;;;3.83;0.90;;;6.40;99.80;;;;;;4994640;28;20633;-86
2023/04/03 09:42:18;;;;;;;3.27;0.90;;;6.30;99.90;;;;;;4994727;28;20218;-84
2023/04/03 09:45:01;;;;;;;4.17;1.10;;;5.90;99.90;;;;;;4994819;28;20192;-88
2023/04/03 09:47:27;;;;;;;4.47;0.83;;;6.00;99.90;;;;;;4995842;28;20168;-83
2023/04/03 09:50:12;;;;;;;3.80;0.80;;;5.80;99.70;;;;;;4994319;28;20521;-84
2023/04/03 09:52:39;;;;;;;2.27;0.70;;;5.60;99.80;;;;;;5007810;28;20606;-83
2023/04/03 09:55:15;;;;;;;3.43;0.90;;;5.60;99.90;;;;;;5014069;28;20230;-87
2023/04/03 09:57:41;;;;;;;2.37;0.70;;;5.40;98.40;;;;;;5014132;28;20183;-84
2023/04/03 10:00:25;;;;;;;4.40;1.00;;;5.30;99.20;;;;;;5013858;28;20818;-82
2023/04/03 10:02:54;;;;;;;6.23;1.07;;;5.30;99.90;;;;;;5015137;28;20221;-82
2023/04/03 10:05:40;;;;;;;6.10;0.90;;;5.50;99.40;;;;;;5013701;28;20187;-82
2023/04/03 10:08:09;;;;;;;3.30;0.70;;;5.60;99.50;;;;;;5014695;28;20159;-84
2023/04/03 10:10:35;;;;;;;2.17;0.60;;;5.60;98.60;;;;;;5013299;28;20260;-82
2023/04/03 10:13:12;;;;;;;3.03;0.93;;;5.60;98.80;;;;;;5013757;28;20175;-83
2023/04/03 10:15:52;;;;;;;1.63;0.80;;;5.50;97.40;;;;;;5014807;28;20648;-85
2023/04/03 10:18:23;;;;;;;6.17;1.40;;;5.40;97.60;;;;;;5014953;28;20159;-83
2023/04/03 10:20:51;;;;;;;3.20;0.80;;;5.80;98.30;;;;;;5013320;28;20527;-82
2023/04/03 10:23:26;;;;;;;0.90;0.60;;;5.90;98.20;;;;;;5013063;28;20614;-85
2023/04/03 10:25:52;;;;;;;3.23;0.90;;;5.80;98.00;;;;;;5013435;28;20183;-83
2023/04/03 10:28:45;;;;;;;1.80;0.70;;;5.80;97.30;;;;;;5012882;28;20689;-85
2023/04/03 10:31:33;;;;;;;4.23;0.70;;;5.60;98.10;;;;;;5013134;28;20218;-84
2023/04/03 10:34:13;;;;;;;2.93;0.80;;;5.50;97.30;;;;;;5013359;28;20183;-83
2023/04/03 10:36:45;;;;;;;3.87;1.03;;;5.60;97.30;;;;;;5013809;28;20218;-83
2023/04/03 10:39:37;;;;;;;2.80;0.93;;;5.90;98.40;;;;;;5013119;28;20179;-83
2023/04/03 10:42:25;;;;;;;1.90;0.90;;;6.00;97.00;;;;;;5014411;28;20271;-82
2023/04/03 10:45:12;;;;;;;3.73;0.90;;;5.90;98.00;;;;;;5005786;28;20246;-81
2023/04/03 10:48:03;;;;;;;2.93;0.70;;;6.00;98.10;;;;;;5011895;28;20174;-82
2023/04/03 10:50:57;;;;;;;2.60;0.73;;;6.10;96.80;;;;;;5012043;28;20168;-84
2023/04/03 10:53:55;;;;;;;5.03;1.00;;;6.00;96.20;;;;;;5012666;28;20175;-83
2023/04/03 10:56:41;;;;;;;1.80;0.67;;;5.90;97.90;;;;;;5012887;28;20218;-83
2023/04/03 10:59:21;;;;;;;3.17;0.80;;;5.90;96.80;;;;;;5014222;28;20159;-82
2023/04/03 11:01:52;;;;;;;2.13;0.80;;;5.70;96.80;;;;;;5013665;28;20163;-83
2023/04/03 11:04:21;;;;;;;3.73;0.87;;;5.70;97.10;;;;;;5014162;28;20175;-83
2023/04/03 11:07:10;;;;;;;7.20;0.73;;;5.70;97.80;;;;;;5014004;28;20163;-87
2023/04/03 11:09:42;;;;;;;5.40;0.90;;;5.80;97.20;;;;;;4995837;28;20600;-85
2023/04/03 11:12:26;;;;;;;3.87;0.80;;;5.80;97.20;;;;;;5013517;28;20163;-83
2023/04/03 11:14:55;;;;;;;2.73;0.80;;;5.50;96.50;;;;;;5012459;28;20195;-85
2023/04/03 11:17:23;;;;;;;4.23;0.73;;;5.50;97.30;;;;;;5012873;28;20250;-83
2023/04/03 11:20:06;;;;;;;2.70;0.80;;;5.60;98.10;;;;;;5011760;28;20214;-86
2023/04/03 11:22:43;;;;;;;1.17;0.70;;;5.60;98.20;;;;;;5013250;28;20186;-84
2023/04/03 11:25:11;;;;;;;1.80;0.60;;;5.60;99.10;;;;;;5012568;28;20175;-84
2023/04/03 11:27:49;;;;;;;3.47;0.87;;;5.70;98.00;;;;;;5012225;28;20316;-85
2023/04/03 11:30:21;;;;;;;1.80;0.60;;;5.70;97.20;;;;;;5013904;28;20500;-85
2023/04/03 11:32:56;;;;;;;4.27;0.87;;;5.70;97.50;;;;;;5012344;28;20189;-84
2023/04/03 11:35:23;;;;;;;2.43;0.70;;;5.70;95.80;;;;;;5012372;28;20210;-84
2023/04/03 11:37:52;;;;;;;3.67;0.80;;;5.90;96.50;;;;;;5012063;28;20198;-84
2023/04/03 11:40:32;;;;;;;1.40;0.87;;;6.00;94.90;;;;;;5013584;28;20175;-84
2023/04/03 11:43:36;;;;;;;1.47;0.70;;;6.50;95.20;;;;;;5012503;28;20195;-83
2023/04/03 11:46:02;;;;;;;2.70;0.67;;;6.80;93.80;;;;;;4975546;28;20191;-83
2023/04/03 11:48:36;;;;;;;1.70;0.70;;;6.70;92.80;;;;;;5004301;28;20199;-85
2023/04/03 11:51:17;;;;;;;1.77;0.50;;;6.80;94.10;;;;;;5013513;28;20589;-84
2023/04/03 11:53:46;;;;;;;3.17;0.90;;;6.80;94.50;;;;;;5011856;28;20191;-82
2023/04/03 11:56:25;;;;;;;3.07;0.63;;;6.60;93.00;;;;;;5011966;28;20215;-83
2023/04/03 11:59:09;;;;;;;6.00;0.80;;;6.70;92.30;;;;;;5014843;28;20171;-83
2023/04/03 12:01:55;;;;;;;1.83;0.90;;;6.70;95.00;;;;;;5015932;28;20171;-83
2023/04/03 12:04:25;;;;;;;5.47;0.90;;;6.90;95.40;;;;;;5017285;28;20195;-83
2023/04/03 12:07:01;;;;;;;2.33;0.50;;;7.00;95.00;;;;;;5015874;28;20167;-85
2023/04/03 12:09:46;;;;;;;2.60;0.70;;;6.70;92.90;;;;;;5017317;28;20195;-84
2023/04/03 12:12:32;;;;;;;1.63;0.77;;;6.50;94.60;;;;;;5014550;28;20187;-84
2023/04/03 12:15:36;;;;;;;3.07;0.90;;;6.30;94.80;;;;;;5016954;28;20684;-83
2023/04/03 12:18:40;;;;;;;3.17;0.90;;;6.10;94.90;;;;;;4979041;28;20685;-84
2023/04/03 12:21:06;;;;;;;2.03;0.90;;;6.10;95.20;;;;;;5015613;28;20175;-83
2023/04/03 12:23:55;;;;;;;3.27;1.17;;;6.10;95.10;;;;;;5015283;28;20172;-84
2023/04/03 12:26:27;;;;;;;1.90;1.00;;;6.10;95.70;;;;;;5014587;28;20190;-83
2023/04/03 12:28:55;;;;;;;3.63;0.90;;;6.00;94.70;;;;;;5015646;28;20231;-83
2023/04/03 12:31:25;;;;;;;2.87;0.70;;;6.00;95.00;;;;;;5016714;28;20175;-83
2023/04/03 12:34:18;;;;;;;1.90;0.90;;;6.20;94.40;;;;;;5016839;28;20518;-85
2023/04/03 12:36:58;;;;;;;2.37;0.90;;;6.40;93.30;;;;;;5016797;28;20589;-83
2023/04/03 12:40:15;;;;;;;2.03;0.70;;;6.90;92.70;;;;;;5014731;28;20190;-83
2023/04/03 12:43:25;;;;;;;1.93;0.50;;;7.50;93.90;;;;;;4978161;28;20641;-85
2023/04/03 12:46:02;;;;;;;1.57;0.70;;;7.90;92.50;;;;;;4992699;28;20282;-84
2023/04/03 12:48:31;;;;;;;8.37;2.67;;;7.90;92.10;;;;;;5015201;28;20684;-82
2023/04/03 12:50:58;;;;;;;6.17;1.97;;;7.70;92.10;;;;;;5015115;28;20179;-84
2023/04/03 12:53:34;;;;;;;1.80;0.90;;;7.10;91.50;;;;;;5015263;28;20202;-84
2023/04/03 12:56:27;;;;;;;5.70;3.53;;;6.80;89.10;;;;;;4996691;28;20574;-83
2023/04/03 12:58:55;;;;;;;1.93;0.90;;;6.70;91.30;;;;;;4995561;28;20172;-84
2023/04/03 13:01:25;;;;;;;2.87;0.90;;;6.70;91.30;;;;;;4996437;28;20187;-83
2023/04/03 13:03:57;;;;;;;1.93;0.90;;;7.20;92.00;;;;;;4995521;28;20199;-83
2023/04/03 13:06:44;;;;;;;5.43;1.07;;;7.70;91.80;;;;;;5008281;28;20190;-83
2023/04/03 13:09:28;;;;;;;6.00;2.60;;;7.60;89.80;;;;;;5015643;28;20179;-84
2023/04/03 13:12:10;;;;;;;2.37;0.70;;;7.20;89.10;;;;;;5014732;28;20191;-84
2023/04/03 13:14:36;;;;;;;1.33;0.60;;;7.00;89.90;;;;;;5014763;28;20248;-84